Time;durP1;ratioP1;P1;durP2;ratioP2;P2;SDS_P1;SDS_P2;PMS_P1;PMS_P2;Temp;Humidity;BMP_temperature;BMP_pressure;BME280_temperature;BME280_humidity;BME280_pressure;Samples;Min_cycle;Max_cycle;Signal;HPM_P1;HPM_P2
2022/12/14 00:00:26;;;;;;;;;102.67;70.67;;;;;-4.47;100.00;99365.16;6310592;20;3675919;-50
2022/12/14 00:02:56;;;;;;;;;137.17;94.33;;;;;-4.29;100.00;99369.41;6281409;20;4460688;-52
2022/12/14 00:05:27;;;;;;;;;85.00;57.00;;;;;-4.65;100.00;99366.13;6314061;20;2899311;-51
2022/12/14 00:07:57;;;;;;;;;107.00;75.67;;;;;-4.83;100.00;99360.97;6313912;20;3667082;-49
2022/12/14 00:10:27;;;;;;;;;90.67;61.00;;;;;-4.66;100.00;99366.13;6311870;20;2904586;-50
2022/12/14 00:12:57;;;;;;;;;89.67;58.33;;;;;-4.64;100.00;99364.38;6312994;20;2902610;-52
2022/12/14 00:15:26;;;;;;;;;112.00;69.33;;;;;-4.62;100.00;99370.47;6310635;20;3670188;-52
2022/12/14 00:17:56;;;;;;;;;90.00;65.33;;;;;-4.84;100.00;99369.72;6310971;20;3659691;-49
2022/12/14 00:20:26;;;;;;;;;93.00;61.00;;;;;-4.68;100.00;99371.38;6312804;20;3660722;-47
2022/12/14 00:22:55;;;;;;;;;80.00;56.00;;;;;-4.64;100.00;99372.22;6313393;20;2873335;-52
2022/12/14 00:25:24;;;;;;;;;67.00;53.00;;;;;-4.39;100.00;99372.09;6280478;20;2502385;-51
2022/12/14 00:27:52;;;;;;;;;81.50;57.50;;;;;-4.44;100.00;99370.38;6279290;20;2502439;-51
2022/12/14 00:30:21;;;;;;;;;94.33;60.00;;;;;-4.49;100.00;99369.53;6280325;20;3654482;-49
2022/12/14 00:32:49;;;;;;;;;83.50;61.50;;;;;-4.39;100.00;99372.09;6305960;20;2502372;-52
2022/12/14 00:35:19;;;;;;;;;81.00;55.33;;;;;-4.70;100.00;99367.91;6279993;20;3637768;-50
2022/12/14 00:37:48;;;;;;;;;97.00;63.67;;;;;-4.57;100.00;99362.59;6313516;20;3664996;-52
2022/12/14 00:40:16;;;;;;;;;72.50;51.00;;;;;-4.42;100.00;99365.13;6312138;20;2868030;-49
2022/12/14 00:42:45;;;;;;;;;89.33;63.67;;;;;-4.48;100.00;99367.78;6278450;20;3659686;-51
2022/12/14 00:45:15;;;;;;;;;94.00;67.33;;;;;-4.58;100.00;99384.41;6312557;20;3660918;-47
2022/12/14 00:47:45;;;;;;;;;85.00;63.67;;;;;-4.55;100.00;99384.44;6315188;20;2886978;-47
2022/12/14 00:50:14;;;;;;;;;92.33;63.67;;;;;-4.23;100.00;99392.94;6311486;20;2904647;-51
2022/12/14 00:52:44;;;;;;;;;81.67;60.00;;;;;-4.24;100.00;99387.69;6313479;20;2886817;-51
2022/12/14 00:55:13;;;;;;;;;87.67;60.67;;;;;-4.39;100.00;99388.69;6310541;20;3647309;-52
2022/12/14 00:57:43;;;;;;;;;92.00;65.33;;;;;-4.74;100.00;99392.38;6311780;20;3660683;-52
2022/12/14 01:00:12;;;;;;;;;85.50;65.00;;;;;-4.51;100.00;99388.75;6308495;20;2883649;-51
2022/12/14 01:02:41;;;;;;;;;75.00;57.00;;;;;-4.32;100.00;99393.00;6282532;20;3611801;-51
2022/12/14 01:05:11;;;;;;;;;93.00;65.33;;;;;-4.17;100.00;99393.78;6278236;20;3661696;-52
2022/12/14 01:07:40;;;;;;;;;88.67;63.33;;;;;-4.21;100.00;99388.56;6309458;20;3645031;-51
2022/12/14 01:10:10;;;;;;;;;85.67;58.67;;;;;-4.27;100.00;99383.34;6310366;20;3651378;-47
2022/12/14 01:12:39;;;;;;;;;94.33;68.33;;;;;-4.28;100.00;99376.38;6313908;20;2899220;-48
2022/12/14 01:15:09;;;;;;;;;93.00;63.33;;;;;-4.16;100.00;99378.06;6311214;20;3658584;-48
2022/12/14 01:17:39;;;;;;;;;89.67;66.00;;;;;-4.12;100.00;99381.53;6312392;20;2898270;-50
2022/12/14 01:20:09;;;;;;;;;95.33;69.00;;;;;-3.94;100.00;99383.13;6311913;20;2901388;-50
2022/12/14 01:22:39;;;;;;;;;100.00;69.00;;;;;-4.07;100.00;99384.97;6314199;20;3671145;-50
2022/12/14 01:25:09;;;;;;;;;95.33;69.00;;;;;-3.84;100.00;99388.28;6311906;20;3648282;-47
2022/12/14 01:27:38;;;;;;;;;96.67;63.33;;;;;-3.81;100.00;99388.25;6309297;20;3666966;-51
2022/12/14 01:30:08;;;;;;;;;95.67;64.33;;;;;-3.89;100.00;99395.31;6310516;20;3673223;-48
2022/12/14 01:32:38;;;;;;;;;88.33;51.00;;;;;-3.92;100.00;99389.22;6309521;20;2886780;-50
2022/12/14 01:35:08;;;;;;;;;92.67;58.33;;;;;-3.80;100.00;99378.63;6311666;20;2896230;-50
2022/12/14 01:37:37;;;;;;;;;92.00;65.00;;;;;-3.77;100.00;99379.47;6309348;20;2904516;-49
2022/12/14 01:40:06;;;;;;;;;89.33;55.33;;;;;-3.99;100.00;99383.16;6273953;20;3663833;-52
2022/12/14 01:42:37;;;;;;;;;99.00;66.00;;;;;-4.23;100.00;99379.84;6312584;20;2914156;-48
2022/12/14 01:45:22;;;;;;;;;85.67;60.00;;;;;-4.23;100.00;99371.97;6309918;20;3650293;-52
2022/12/14 01:47:58;;;;;;;;;84.33;60.00;;;;;-4.17;100.00;99376.31;6309736;20;3635796;-53
2022/12/14 01:50:43;;;;;;;;;79.00;60.00;;;;;-4.13;100.00;99374.53;6306834;20;2890982;-51
2022/12/14 01:53:20;;;;;;;;;82.00;60.33;;;;;-4.22;100.00;99365.84;6276320;20;2893077;-49
2022/12/14 01:55:54;;;;;;;;;86.00;60.67;;;;;-4.09;100.00;99358.75;6305305;20;3651325;-47
2022/12/14 01:58:27;;;;;;;;;93.00;63.00;;;;;-3.93;100.00;99349.03;6307013;20;2904508;-50
2022/12/14 02:00:59;;;;;;;;;87.67;58.67;;;;;-3.89;100.00;99349.88;6307831;20;3656603;-51
2022/12/14 02:03:38;;;;;;;;;86.33;63.00;;;;;-3.83;100.00;99348.06;6308863;20;2895231;-49
2022/12/14 02:06:34;;;;;;;;;95.33;64.67;;;;;-4.08;100.00;99347.41;6307989;20;3654521;-51
2022/12/14 02:09:14;;;;;;;;;87.33;62.33;;;;;-3.98;100.00;99335.97;6304755;20;2894277;-49
2022/12/14 02:11:55;;;;;;;;;93.33;64.33;;;;;-4.04;100.00;99337.75;6310716;20;2900381;-48
2022/12/14 02:14:25;;;;;;;;;86.00;57.67;;;;;-3.94;100.00;99328.06;6308191;20;3657603;-47
2022/12/14 02:16:57;;;;;;;;;89.67;64.67;;;;;-3.67;100.00;99332.19;6309987;20;2897300;-50
2022/12/14 02:19:27;;;;;;;;;96.33;66.00;;;;;-3.56;100.00;99328.56;6307489;20;3672259;-48
2022/12/14 02:22:46;;;;;;;;;89.67;66.33;;;;;-3.91;100.00;99323.66;6312309;20;2897264;-49
2022/12/14 02:26:24;;;;;;;;;91.00;61.00;;;;;-3.63;100.00;99324.28;6311146;20;3665936;-52
2022/12/14 02:29:39;;;;;;;;;97.00;69.33;;;;;-3.81;100.00;99325.31;6306569;20;3657542;-51
2022/12/14 02:33:14;;;;;;;;;93.67;69.00;;;;;-3.94;100.00;99326.31;6307155;20;3668187;-52
2022/12/14 02:36:01;;;;;;;;;97.33;67.00;;;;;-3.66;100.00;99328.66;6304847;20;3665891;-49
2022/12/14 02:39:10;;;;;;;;;85.00;63.00;;;;;-3.21;100.00;99321.16;6306767;20;2500499;-50
2022/12/14 02:41:52;;;;;;;;;84.00;55.00;;;;;-3.55;100.00;99316.31;6274951;20;2502355;-49
2022/12/14 02:45:12;;;;;;;;;88.00;56.67;;;;;-3.58;100.00;99314.59;6278120;20;2902366;-50
2022/12/14 02:48:08;;;;;;;;;91.00;66.00;;;;;-3.47;100.00;99309.25;6307871;20;3653412;-52
2022/12/14 02:51:07;;;;;;;;;93.33;67.67;;;;;-3.23;100.00;99301.97;6307097;20;3647175;-48
2022/12/14 02:54:11;;;;;;;;;88.33;66.33;;;;;-3.28;100.00;99293.28;6314752;20;2903605;-52
2022/12/14 02:56:53;;;;;;;;;86.33;60.67;;;;;-3.35;100.00;99287.22;6312267;20;3661822;-51
2022/12/14 02:59:24;;;;;;;;;81.67;61.00;;;;;-3.22;100.00;99288.81;6311397;20;2890920;-49
2022/12/14 03:01:52;;;;;;;;;86.00;60.00;;;;;-3.49;100.00;99291.78;6310503;20;2492077;-48
2022/12/14 03:04:23;;;;;;;;;96.67;61.67;;;;;-3.34;100.00;99288.97;6282452;20;3666017;-54
2022/12/14 03:07:03;;;;;;;;;82.33;61.33;;;;;-3.35;100.00;99293.34;6310932;20;2889982;-48
2022/12/14 03:09:32;;;;;;;;;84.50;52.00;;;;;-3.35;100.00;99295.97;6311405;20;2895093;-47
2022/12/14 03:12:10;;;;;;;;;78.00;60.50;;;;;-3.28;100.00;99303.78;6276976;20;2500273;-51
2022/12/14 03:14:49;;;;;;;;;85.00;66.00;;;;;-3.18;100.00;99300.16;6283279;20;2888838;-51
2022/12/14 03:17:26;;;;;;;;;92.00;62.33;;;;;-3.18;100.00;99302.78;6276255;20;2904714;-51
2022/12/14 03:20:09;;;;;;;;;200.67;140.33;;;;;-3.22;100.00;99303.69;6311408;20;3719121;-52
2022/12/14 03:22:54;;;;;;;;;24.50;11.50;;;;;-3.31;100.00;99310.78;6279218;20;2827489;-50
2022/12/14 03:25:41;;;;;;;;;103.67;76.00;;;;;-3.10;100.00;99301.78;6281382;20;3677358;-51
2022/12/14 03:28:20;;;;;;;;;167.67;124.00;;;;;-3.16;100.00;99304.50;6310427;20;3710792;-53
2022/12/14 03:31:35;;;;;;;;;158.25;130.75;;;;;-2.92;100.00;99302.44;6281043;20;4500313;-48
2022/12/14 03:34:13;;;;;;;;;272.00;211.67;;;;;-3.06;100.00;99302.59;6279153;20;3700260;-53
2022/12/14 03:37:00;;;;;;;;;125.33;91.33;;;;;-3.09;100.00;99300.03;6280230;20;3706513;-49
2022/12/14 03:39:34;;;;;;;;;118.67;97.00;;;;;-3.00;100.00;99294.66;6281705;20;3700353;-51
2022/12/14 03:43:06;;;;;;;;;130.67;101.33;;;;;-3.07;100.00;99292.16;6282760;20;3696094;-51
2022/12/14 03:45:55;;;;;;;;;96.33;63.67;;;;;-2.90;100.00;99300.66;6280835;20;2903622;-52
2022/12/14 03:48:36;;;;;;;;;109.67;75.67;;;;;-3.04;100.00;99302.59;6308606;20;3677334;-52
2022/12/14 03:51:34;;;;;;;;;122.00;88.33;;;;;-2.89;100.00;99302.41;6308261;20;3700384;-50
2022/12/14 03:54:45;;;;;;;;;93.33;67.00;;;;;-3.16;100.00;99288.75;6273505;20;2898536;-51
2022/12/14 03:57:46;;;;;;;;;106.00;78.33;;;;;-3.03;100.00;99281.56;6306315;20;3668007;-50
2022/12/14 04:00:24;;;;;;;;;99.00;74.33;;;;;-2.82;100.00;99284.78;6313239;20;3655585;-50
2022/12/14 04:03:13;;;;;;;;;90.00;67.00;;;;;-2.93;100.00;99280.53;6310899;20;2894029;-47
2022/12/14 04:05:56;;;;;;;;;97.00;69.00;;;;;-2.94;100.00;99272.72;6312003;20;3660721;-52
2022/12/14 04:08:59;;;;;;;;;92.33;67.67;;;;;-2.97;100.00;99257.84;6311825;20;3657535;-49
2022/12/14 04:20:41;;;;;;;;;76.50;49.00;;;;;-2.87;100.00;99255.94;6302406;20;2500313;-52
2022/12/14 04:26:03;;;;;;;;;94.67;72.00;;;;;-2.88;100.00;99247.22;6280911;20;3648301;-48
2022/12/14 04:26:16;;;;;;;;;115.67;100.33;;;;;-2.89;100.00;99248.13;6311426;20;3680524;-49
2022/12/14 04:31:56;;;;;;;;;137.33;105.33;;;;;-3.09;100.00;99239.63;6280239;20;3712099;-51
2022/12/14 04:34:31;;;;;;;;;316.00;242.25;;;;;-3.02;100.00;99251.81;6282043;20;3734622;-48
2022/12/14 04:37:10;;;;;;;;;123.33;102.00;;;;;-2.88;100.00;99262.09;6277017;20;3685678;-48
2022/12/14 04:39:52;;;;;;;;;105.00;78.67;;;;;-2.97;100.00;99262.25;6275725;20;3687814;-52
2022/12/14 04:42:33;;;;;;;;;114.67;90.67;;;;;-2.91;100.00;99255.13;6277372;20;3695196;-49
2022/12/14 04:45:22;;;;;;;;;112.00;90.00;;;;;-2.82;100.00;99253.25;6279710;20;3694027;-52
2022/12/14 04:48:20;;;;;;;;;88.67;66.00;;;;;-2.84;100.00;99242.81;6281332;20;2898431;-48
2022/12/14 04:51:05;;;;;;;;;100.67;76.67;;;;;-2.95;100.00;99245.59;6313991;20;3659770;-50
2022/12/14 04:53:38;;;;;;;;;118.00;94.33;;;;;-2.85;100.00;99242.81;6312485;20;3688789;-49
2022/12/14 04:56:33;;;;;;;;;129.00;99.67;;;;;-2.79;100.00;99243.59;6279114;20;3706767;-47
2022/12/14 04:59:03;;;;;;;;;112.33;85.67;;;;;-2.78;100.00;99239.22;6279047;20;3689827;-51
2022/12/14 05:01:50;;;;;;;;;109.33;78.00;;;;;-2.82;100.00;99234.88;6281192;20;3681608;-49
2022/12/14 05:04:53;;;;;;;;;84.50;52.50;;;;;-3.00;100.00;99231.66;6311863;20;2883675;-49
2022/12/14 05:07:57;;;;;;;;;104.00;74.33;;;;;-2.84;100.00;99229.66;6282591;20;3667084;-52
2022/12/14 05:10:47;;;;;;;;;98.00;72.67;;;;;-3.17;100.00;99221.34;6311631;20;3646105;-51
2022/12/14 05:13:30;;;;;;;;;81.00;58.50;;;;;-3.17;100.00;99223.97;6305056;20;2508616;-51
2022/12/14 05:15:59;;;;;;;;;77.00;59.00;;;;;-3.24;100.00;99226.72;6280005;20;2877376;-52
2022/12/14 05:18:28;;;;;;;;;70.00;49.00;;;;;-3.21;100.00;99226.66;6280712;20;2865031;-49
2022/12/14 05:20:56;;;;;;;;;73.00;52.00;;;;;-3.51;100.00;99222.69;6276090;20;2500332;-48
2022/12/14 05:23:24;;;;;;;;;50.00;34.00;;;;;-3.45;100.00;99217.34;6279233;20;2500743;-50
2022/12/14 05:25:52;;;;;;;;;80.00;57.00;;;;;-3.50;100.00;99220.06;6277675;20;2500324;-49
2022/12/14 05:28:22;;;;;;;;;82.00;61.67;;;;;-3.27;100.00;99208.38;6280042;20;2889942;-50
2022/12/14 05:30:51;;;;;;;;;81.00;58.00;;;;;-3.36;100.00;99207.63;6312800;20;2880676;-51
2022/12/14 05:33:20;;;;;;;;;70.00;54.00;;;;;-3.50;100.00;99203.44;6278122;20;2499337;-51
2022/12/14 05:35:50;;;;;;;;;96.33;66.33;;;;;-3.14;100.00;99220.44;6281816;20;3661843;-51
2022/12/14 05:38:19;;;;;;;;;110.00;75.67;;;;;-2.89;100.00;99224.47;6307584;20;3678382;-51
2022/12/14 05:40:49;;;;;;;;;85.67;63.00;;;;;-3.04;100.00;99224.69;6278320;20;2892028;-50
2022/12/14 05:43:17;;;;;;;;;73.67;60.00;;;;;-3.21;100.00;99226.66;6310721;20;3620078;-48
2022/12/14 05:45:46;;;;;;;;;77.50;61.50;;;;;-3.24;100.00;99216.22;6279553;20;2872287;-50
2022/12/14 05:48:16;;;;;;;;;84.67;61.67;;;;;-3.12;100.00;99205.56;6275559;20;2900358;-48
2022/12/14 05:50:45;;;;;;;;;87.00;66.33;;;;;-3.25;100.00;99201.38;6308990;20;2892985;-50
2022/12/14 05:53:14;;;;;;;;;71.50;49.00;;;;;-3.33;100.00;99199.69;6312238;20;2877594;-47
2022/12/14 05:55:50;;;;;;;;;75.50;55.00;;;;;-3.10;100.00;99198.53;6275245;20;2883618;-48
2022/12/14 05:58:19;;;;;;;;;81.00;55.00;;;;;-3.18;100.00;99192.53;6280751;20;2877377;-49
2022/12/14 06:00:46;;;;;;;;;81.00;58.50;;;;;-3.21;100.00;99192.53;6276374;20;2492025;-48
2022/12/14 06:03:15;;;;;;;;;69.50;51.50;;;;;-3.28;100.00;99193.53;6280812;20;2870065;-48
2022/12/14 06:05:46;;;;;;;;;89.67;66.33;;;;;-3.22;100.00;99189.06;6282368;20;2898193;-49
2022/12/14 06:08:14;;;;;;;;;74.50;57.50;;;;;-3.20;100.00;99191.66;6309646;20;2870157;-51
2022/12/14 06:10:44;;;;;;;;;91.67;68.33;;;;;-3.22;100.00;99193.44;6279017;20;3656570;-48
2022/12/14 06:13:13;;;;;;;;;60.00;42.67;;;;;-3.16;100.00;99191.59;6312004;20;3601316;-51
2022/12/14 06:15:41;;;;;;;;;53.00;39.50;;;;;-3.10;100.00;99185.41;6277341;20;2857584;-51
2022/12/14 06:18:09;;;;;;;;;60.50;43.00;;;;;-2.90;100.00;99174.56;6277276;20;2872539;-52
2022/12/14 06:20:39;;;;;;;;;76.67;53.67;;;;;-2.91;100.00;99172.84;6279605;20;2887829;-50
2022/12/14 06:23:09;;;;;;;;;55.00;43.00;;;;;-3.02;100.00;99162.53;6332905;20;3609719;-48
2022/12/14 06:25:37;;;;;;;;;36.33;21.67;;;;;-2.96;100.00;99156.31;6278295;20;2849483;-48
2022/12/14 06:28:06;;;;;;;;;36.00;27.00;;;;;-3.08;100.00;99146.88;6317098;20;3591911;-48
2022/12/14 06:30:36;;;;;;;;;95.00;68.33;;;;;-2.95;100.00;99140.53;6317380;20;3645067;-49
2022/12/14 06:33:05;;;;;;;;;98.00;64.67;;;;;-2.83;100.00;99141.22;6317821;20;3671126;-49
2022/12/14 06:35:35;;;;;;;;;122.67;92.67;;;;;-2.97;100.00;99138.81;6318212;20;3693987;-47
2022/12/14 06:38:04;;;;;;;;;51.00;38.50;;;;;-3.00;100.00;99144.09;6285779;20;2877364;-48
2022/12/14 06:40:33;;;;;;;;;100.00;72.00;;;;;-2.76;100.00;99166.50;6280605;20;3669225;-50
2022/12/14 06:43:03;;;;;;;;;85.33;59.67;;;;;-2.76;100.00;99177.00;6317533;20;2899362;-50
2022/12/14 06:45:32;;;;;;;;;81.50;64.50;;;;;-2.83;100.00;99180.63;6314657;20;2882569;-50
2022/12/14 06:48:00;;;;;;;;;68.50;52.00;;;;;-2.78;100.00;99178.78;6282918;20;2494067;-48
2022/12/14 06:50:28;;;;;;;;;52.00;38.00;;;;;-2.90;100.00;99179.81;6277105;20;2499356;-50
2022/12/14 06:52:57;;;;;;;;;74.50;55.50;;;;;-2.96;100.00;99166.81;6284011;20;2878407;-48
2022/12/14 06:55:28;;;;;;;;;95.33;67.00;;;;;-3.00;100.00;99162.47;6281404;20;3653510;-48
2022/12/14 06:57:58;;;;;;;;;78.67;57.33;;;;;-2.80;100.00;99163.03;6309763;20;2890958;-50
2022/12/14 07:00:26;;;;;;;;;69.50;52.00;;;;;-2.73;100.00;99166.44;6314354;20;2868001;-49
2022/12/14 07:02:55;;;;;;;;;77.50;54.50;;;;;-2.76;100.00;99158.63;6283679;20;2880498;-51
2022/12/14 07:05:25;;;;;;;;;92.67;69.33;;;;;-2.58;100.00;99165.31;6283838;20;3659702;-50
2022/12/14 07:07:53;;;;;;;;;73.50;58.00;;;;;-2.69;100.00;99161.09;6309728;20;2491961;-47
2022/12/14 07:10:21;;;;;;;;;66.67;58.67;;;;;-2.57;100.00;99146.91;6284255;20;3609688;-48
2022/12/14 07:12:51;;;;;;;;;78.67;60.00;;;;;-2.67;100.00;99147.94;6286129;20;2885806;-49
2022/12/14 07:15:20;;;;;;;;;54.67;44.00;;;;;-2.73;100.00;99143.66;6316613;20;3616950;-48
2022/12/14 07:17:48;;;;;;;;;75.67;55.67;;;;;-2.58;100.00;99149.53;6283696;20;3641056;-51
2022/12/14 07:20:17;;;;;;;;;78.50;59.50;;;;;-2.65;100.00;99148.78;6313876;20;2876348;-46
2022/12/14 07:22:47;;;;;;;;;60.00;35.00;;;;;-2.60;100.00;99151.34;6281639;20;3613805;-47
2022/12/14 07:25:17;;;;;;;;;74.67;58.33;;;;;-2.50;100.00;99153.78;6284476;20;2879486;-48
2022/12/14 07:27:47;;;;;;;;;97.33;67.67;;;;;-2.44;100.00;99148.41;6314351;20;3667983;-48
2022/12/14 07:30:17;;;;;;;;;87.33;57.67;;;;;-2.41;100.00;99136.97;6312814;20;2898198;-50
2022/12/14 07:32:45;;;;;;;;;78.50;59.00;;;;;-2.63;100.00;99131.25;6316843;20;2885680;-50
2022/12/14 07:35:15;;;;;;;;;80.33;58.00;;;;;-2.24;100.00;99126.13;6284552;20;2890948;-51
2022/12/14 07:37:43;;;;;;;;;73.00;53.00;;;;;-2.25;100.00;99132.31;6310675;20;2500286;-49
2022/12/14 07:40:17;;;;;;;;;69.00;52.33;;;;;-2.27;100.00;99128.84;6283053;20;2879554;-50
2022/12/14 07:42:50;;;;;;;;;79.00;57.67;;;;;-2.17;100.00;99134.78;6315197;20;3640328;-47
2022/12/14 07:45:19;;;;;;;;;80.33;60.00;;;;;-1.98;100.00;99134.38;6313676;20;3645078;-53
2022/12/14 07:47:49;;;;;;;;;81.00;59.00;;;;;-2.01;100.00;99137.09;6314410;20;2890055;-48
2022/12/14 07:50:17;;;;;;;;;73.00;56.00;;;;;-2.27;100.00;99144.59;6311181;20;2493043;-49
2022/12/14 07:52:44;;;;;;;;;64.50;50.50;;;;;-2.40;100.00;99143.09;6280955;20;2496128;-48
2022/12/14 07:55:13;;;;;;;;;70.50;53.00;;;;;-2.39;100.00;99135.19;6282139;20;2871210;-51
2022/12/14 07:57:43;;;;;;;;;85.33;61.67;;;;;-2.04;100.00;99131.03;6285656;20;3634632;-48
2022/12/14 08:00:11;;;;;;;;;66.00;48.00;;;;;-2.28;100.00;99127.13;6309964;20;2495069;-51
2022/12/14 08:02:40;;;;;;;;;31.00;20.50;;;;;-2.15;100.00;99133.88;6283163;20;2851454;-47
2022/12/14 08:05:08;;;;;;;;;76.00;56.00;;;;;-2.47;100.00;99148.47;6278729;20;2497337;-46
2022/12/14 08:07:41;;;;;;;;;91.00;64.33;;;;;-2.26;100.00;99156.88;6284989;20;3646275;-50
2022/12/14 08:10:09;;;;;;;;;71.00;51.00;;;;;-2.35;100.00;99162.28;6314127;20;2849709;-47
2022/12/14 08:12:39;;;;;;;;;98.00;71.33;;;;;-2.42;100.00;99158.91;6285411;20;3653497;-51
2022/12/14 08:15:09;;;;;;;;;102.67;72.67;;;;;-2.23;100.00;99164.72;6314001;20;3669136;-49
2022/12/14 08:17:38;;;;;;;;;83.67;58.00;;;;;-2.04;100.00;99167.84;6312757;20;2900357;-49
2022/12/14 08:20:09;;;;;;;;;71.50;51.00;;;;;-2.31;100.00;99162.22;6312725;20;2868023;-46
2022/12/14 08:22:37;;;;;;;;;70.00;49.00;;;;;-2.25;100.00;99155.97;6278823;20;2496151;-48
2022/12/14 08:25:07;;;;;;;;;82.33;58.00;;;;;-2.21;100.00;99155.91;6283019;20;2891239;-47
2022/12/14 08:27:36;;;;;;;;;72.50;55.00;;;;;-2.13;100.00;99160.13;6314976;20;2874241;-46
2022/12/14 08:30:06;;;;;;;;;80.00;56.50;;;;;-2.20;100.00;99151.50;6281384;20;2893878;-50
2022/12/14 08:32:36;;;;;;;;;82.67;56.67;;;;;-1.90;100.00;99155.28;6282843;20;2892003;-50
2022/12/14 08:35:06;;;;;;;;;79.33;57.00;;;;;-2.21;100.00;99153.25;6316393;20;2889905;-50
2022/12/14 08:37:35;;;;;;;;;70.50;51.00;;;;;-1.99;100.00;99161.59;6313293;20;2872176;-50
2022/12/14 08:40:05;;;;;;;;;76.50;52.50;;;;;-2.08;100.00;99156.53;6277914;20;2884702;-52
2022/12/14 08:42:33;;;;;;;;;64.67;43.67;;;;;-2.12;100.00;99146.97;6277817;20;2876355;-52
2022/12/14 08:45:01;;;;;;;;;74.50;55.00;;;;;-2.27;100.00;99145.47;6317019;20;2872187;-52
2022/12/14 08:47:30;;;;;;;;;94.67;66.67;;;;;-2.09;100.00;99146.91;6282606;20;3663833;-50
2022/12/14 08:50:00;;;;;;;;;90.33;62.33;;;;;-2.08;100.00;99147.75;6309370;20;3658639;-50
2022/12/14 08:52:28;;;;;;;;;76.00;60.00;;;;;-2.01;100.00;99144.97;6310484;20;2500260;-47
2022/12/14 08:54:58;;;;;;;;;83.67;61.00;;;;;-1.99;100.00;99137.94;6280164;20;2896302;-49
2022/12/14 08:57:28;;;;;;;;;123.00;96.33;;;;;-2.07;100.00;99139.84;6315124;20;3683632;-48
2022/12/14 08:59:57;;;;;;;;;95.67;67.00;;;;;-1.81;100.00;99128.81;6276574;20;3654415;-47
2022/12/14 09:02:30;;;;;;;;;83.00;62.50;;;;;-1.77;100.00;99133.09;6315795;20;2890280;-51
2022/12/14 09:04:59;;;;;;;;;72.33;55.33;;;;;-2.12;100.00;99122.44;6283369;20;2891006;-53
2022/12/14 09:07:30;;;;;;;;;84.00;63.00;;;;;-1.89;100.00;99119.34;6314215;20;2895245;-50
2022/12/14 09:09:59;;;;;;;;;70.00;54.50;;;;;-1.78;100.00;99117.34;6310733;20;2873367;-48
2022/12/14 09:12:28;;;;;;;;;77.00;59.00;;;;;-1.90;100.00;99101.81;6283876;20;2880515;-53
2022/12/14 09:14:57;;;;;;;;;66.00;48.50;;;;;-1.83;100.00;99103.44;6283071;20;2862785;-49
2022/12/14 09:17:24;;;;;;;;;68.00;53.50;;;;;-2.27;100.00;99100.78;6279104;20;2499320;-48
2022/12/14 09:19:53;;;;;;;;;72.00;47.00;;;;;-1.98;100.00;99094.94;6279452;20;2878527;-49
2022/12/14 09:22:21;;;;;;;;;74.00;56.00;;;;;-2.09;100.00;99102.19;6274956;20;2500418;-52
2022/12/14 09:24:51;;;;;;;;;81.00;56.00;;;;;-2.23;100.00;99097.22;6282016;20;2891014;-50
2022/12/14 09:27:21;;;;;;;;;80.67;55.33;;;;;-1.98;100.00;99088.81;6310789;20;2892097;-50
2022/12/14 09:29:50;;;;;;;;;53.00;41.50;;;;;-1.96;100.00;99088.78;6311337;20;2875371;-51
2022/12/14 09:32:19;;;;;;;;;85.00;55.00;;;;;-1.86;100.00;99085.94;6281276;20;2879626;-50
2022/12/14 09:34:47;;;;;;;;;67.50;48.50;;;;;-1.91;100.00;99084.31;6284324;20;2863907;-48
2022/12/14 09:37:16;;;;;;;;;87.33;61.00;;;;;-1.83;100.00;99082.38;6281785;20;3634655;-51
2022/12/14 09:39:45;;;;;;;;;77.50;57.00;;;;;-1.78;100.00;99070.00;6312649;20;2875819;-48
2022/12/14 09:42:46;;;;;;;;;84.00;60.00;;;;;-1.96;100.00;99065.13;6281664;20;2891994;-48
2022/12/14 09:45:33;;;;;;;;;69.50;53.50;;;;;-1.71;100.00;99063.72;6308901;20;2495183;-47
2022/12/14 09:48:32;;;;;;;;;87.67;60.67;;;;;-1.67;100.00;99067.97;6276122;20;2900490;-51
2022/12/14 09:51:01;;;;;;;;;74.00;59.00;;;;;-1.86;100.00;99070.16;6309640;20;2702394;-47
2022/12/14 09:53:30;;;;;;;;;80.33;60.33;;;;;-1.58;100.00;99073.06;6312096;20;2893196;-48
2022/12/14 09:56:00;;;;;;;;;79.50;61.00;;;;;-1.73;100.00;99075.16;6310276;20;2891989;-48
2022/12/14 09:58:31;;;;;;;;;68.00;53.00;;;;;-2.04;100.00;99074.03;6277804;20;2498196;-46
2022/12/14 10:01:23;;;;;;;;;62.00;44.00;;;;;-1.91;100.00;99065.91;6274539;20;2493045;-48
2022/12/14 10:04:41;;;;;;;;;59.33;38.67;;;;;-1.90;100.00;99062.34;6302305;20;2841975;-48
2022/12/14 10:07:40;;;;;;;;;99.25;71.25;;;;;-1.39;100.00;99080.53;6311160;20;3672140;-48
2022/12/14 10:10:25;;;;;;;;;104.00;75.67;;;;;-1.32;100.00;99074.22;6306267;20;3687786;-48
2022/12/14 10:13:21;;;;;;;;;68.00;54.50;;;;;-1.58;100.00;99073.06;6307233;20;2866942;-50
2022/12/14 10:16:30;;;;;;;;;42.50;24.50;;;;;-1.73;100.00;99077.78;6281268;20;2855636;-46
2022/12/14 10:19:59;;;;;;;;;63.50;50.50;;;;;-1.69;100.00;99071.56;6281613;20;2862795;-51
2022/12/14 10:22:46;;;;;;;;;69.50;55.00;;;;;-1.74;100.00;99066.38;6272861;20;2492991;-46
2022/12/14 10:25:32;;;;;;;;;80.67;57.67;;;;;-1.67;100.00;99062.72;6276888;20;2889932;-47
2022/12/14 10:28:12;;;;;;;;;72.00;55.50;;;;;-1.81;100.00;99047.25;6307163;20;2500349;-48
2022/12/14 10:30:43;;;;;;;;;119.67;95.00;;;;;-1.40;100.00;99039.28;6277644;20;3693039;-49
2022/12/14 10:33:29;;;;;;;;;94.00;72.00;;;;;-1.33;100.00;99031.22;6278835;20;3644040;-50
2022/12/14 10:36:18;;;;;;;;;148.00;113.00;;;;;-1.38;100.00;99027.81;6310119;20;3717979;-51
2022/12/14 10:39:25;;;;;;;;;48.00;37.50;;;;;-1.49;100.00;99019.31;6279074;20;2862856;-47
2022/12/14 10:42:18;;;;;;;;;72.00;54.50;;;;;-1.80;100.00;99024.44;6275182;20;2500279;-48
2022/12/14 10:45:45;;;;;;;;;64.50;49.50;;;;;-1.72;100.00;99014.59;6274405;20;2500315;-51
2022/12/14 10:48:49;;;;;;;;;78.00;57.50;;;;;-1.98;100.00;99002.00;6276327;20;2891293;-49
2022/12/14 10:51:57;;;;;;;;;74.67;50.67;;;;;-1.86;100.00;98993.00;6280250;20;2877506;-47
2022/12/14 10:54:51;;;;;;;;;60.00;47.50;;;;;-1.76;100.00;98989.25;6308279;20;2857658;-52
2022/12/14 10:57:25;;;;;;;;;66.50;53.00;;;;;-1.50;100.00;98980.75;6276216;20;2500284;-46
2022/12/14 10:59:55;;;;;;;;;75.00;53.00;;;;;-1.81;100.00;98977.97;6275258;20;2500318;-48
2022/12/14 11:02:46;;;;;;;;;74.50;52.00;;;;;-1.83;100.00;98987.66;6273901;20;2883638;-48
2022/12/14 11:06:01;;;;;;;;;80.00;61.00;;;;;-1.60;100.00;98971.34;6277900;20;2895082;-48
2022/12/14 11:08:47;;;;;;;;;73.50;55.50;;;;;-1.57;100.00;98964.22;6276708;20;2859764;-49
2022/12/14 11:11:25;;;;;;;;;78.00;53.67;;;;;-1.45;100.00;98970.09;6277445;20;2887830;-52
2022/12/14 11:14:14;;;;;;;;;141.67;100.33;;;;;-1.40;100.00;98966.44;6311232;20;3702308;-46
2022/12/14 11:16:44;;;;;;;;;159.00;116.67;;;;;-1.37;100.00;98960.22;6281125;20;3709677;-50
2022/12/14 11:19:22;;;;;;;;;75.33;58.67;;;;;-1.23;100.00;98962.53;6280640;20;2890966;-48
2022/12/14 11:22:12;;;;;;;;;67.50;50.50;;;;;-1.50;100.00;98967.59;6314066;20;2863885;-53
2022/12/14 11:24:50;;;;;;;;;77.33;57.33;;;;;-1.34;100.00;98960.19;6280683;20;3640917;-48
2022/12/14 11:27:20;;;;;;;;;67.50;50.00;;;;;-1.19;100.00;98962.41;6316472;20;2861747;-50
2022/12/14 11:29:50;;;;;;;;;67.00;53.00;;;;;-1.29;100.00;98962.69;6279094;20;2468004;-48
2022/12/14 11:32:25;;;;;;;;;71.50;52.00;;;;;-1.49;100.00;98961.41;6278710;20;2501337;-50
2022/12/14 11:34:57;;;;;;;;;72.50;51.50;;;;;-1.75;100.00;98975.19;6281406;20;2865887;-49
2022/12/14 11:37:30;;;;;;;;;63.50;47.00;;;;;-1.37;100.00;98968.13;6282977;20;2882687;-49
2022/12/14 11:40:06;;;;;;;;;69.67;56.33;;;;;-1.36;100.00;98967.25;6280631;20;2877530;-51
2022/12/14 11:42:36;;;;;;;;;69.00;51.50;;;;;-1.22;100.00;98964.25;6311518;20;2875287;-51
2022/12/14 11:45:24;;;;;;;;;100.67;72.67;;;;;-1.21;100.00;98971.25;6282164;20;3657694;-48
2022/12/14 11:48:15;;;;;;;;;85.33;63.33;;;;;-1.56;100.00;98954.56;6314981;20;3650354;-48